Time;durP1;ratioP1;P1;durP2;ratioP2;P2;SDS_P1;SDS_P2;PMS_P1;PMS_P2;Temp;Humidity;BMP_temperature;BMP_pressure;BME280_temperature;BME280_humidity;BME280_pressure;Samples;Min_cycle;Max_cycle;Signal;HPM_P1;HPM_P2
2022/03/21 00:01:51;;;;;;;53.50;41.80;;;5.00;99.90;;;;;;5053430;28;20072;-72
2022/03/21 00:04:17;;;;;;;55.33;43.08;;;5.00;99.90;;;;;;5048484;28;20094;-72
2022/03/21 00:06:43;;;;;;;54.58;43.40;;;5.00;99.90;;;;;;5055090;28;20205;-72
2022/03/21 00:09:09;;;;;;;52.88;41.47;;;5.00;99.90;;;;;;5051181;28;20055;-72
2022/03/21 00:11:34;;;;;;;52.72;42.60;;;5.00;99.90;;;;;;5047583;28;20040;-72
2022/03/21 00:14:00;;;;;;;57.22;44.80;;;5.00;99.90;;;;;;5052182;28;20052;-72
2022/03/21 00:16:26;;;;;;;55.22;43.17;;;5.00;99.90;;;;;;5062246;28;20392;-72
2022/03/21 00:18:52;;;;;;;56.80;44.85;;;5.00;99.90;;;;;;5067244;28;20039;-72
2022/03/21 00:21:18;;;;;;;57.45;44.72;;;4.90;99.90;;;;;;5052520;28;20035;-71
2022/03/21 00:23:45;;;;;;;58.63;46.13;;;4.90;99.90;;;;;;5070207;28;20036;-72
2022/03/21 00:26:11;;;;;;;59.80;44.85;;;4.90;99.90;;;;;;5047420;28;20044;-73
2022/03/21 00:28:36;;;;;;;54.97;44.47;;;4.90;99.90;;;;;;5037100;28;20035;-73
2022/03/21 00:31:03;;;;;;;57.85;45.72;;;4.80;99.90;;;;;;5067848;28;20388;-72
2022/03/21 00:33:28;;;;;;;56.70;44.42;;;4.90;99.90;;;;;;5046349;28;20044;-72
2022/03/21 00:35:54;;;;;;;58.50;44.72;;;4.90;99.90;;;;;;5050921;28;20040;-72
2022/03/21 00:38:20;;;;;;;58.60;45.20;;;4.80;99.90;;;;;;5048591;28;20620;-72
2022/03/21 00:40:47;;;;;;;54.42;44.05;;;4.80;99.90;;;;;;5047658;28;20062;-72
2022/03/21 00:43:24;;;;;;;55.42;44.22;;;4.80;99.90;;;;;;5045544;28;20049;-72
2022/03/21 00:45:52;;;;;;;58.80;45.38;;;4.80;99.90;;;;;;5046586;28;20049;-72
2022/03/21 00:48:18;;;;;;;65.68;48.85;;;4.80;99.90;;;;;;5049383;28;20086;-72
2022/03/21 00:50:44;;;;;;;64.85;49.83;;;4.80;99.90;;;;;;5046552;28;20043;-72
2022/03/21 00:53:10;;;;;;;65.82;50.33;;;4.80;99.90;;;;;;5050473;28;20040;-72
2022/03/21 00:55:36;;;;;;;64.97;50.10;;;4.80;99.90;;;;;;5047390;28;20041;-72
2022/03/21 00:58:02;;;;;;;69.57;52.13;;;4.80;99.90;;;;;;5054524;28;20056;-72
2022/03/21 01:00:30;;;;;;;64.75;48.40;;;4.90;99.90;;;;;;5045205;28;20060;-73
2022/03/21 01:02:57;;;;;;;67.32;49.22;;;4.90;99.90;;;;;;5065109;28;20041;-72
2022/03/21 01:05:24;;;;;;;65.57;49.60;;;4.90;99.90;;;;;;5052781;28;20043;-72
2022/03/21 01:07:50;;;;;;;65.97;50.90;;;4.90;99.90;;;;;;5054780;28;20128;-70
2022/03/21 01:10:18;;;;;;;69.32;51.75;;;4.90;99.90;;;;;;5052363;28;20037;-72
2022/03/21 01:12:45;;;;;;;63.45;49.03;;;4.90;99.90;;;;;;5063798;28;20036;-73
2022/03/21 01:15:14;;;;;;;65.88;50.10;;;4.90;99.90;;;;;;5052643;28;20044;-72
2022/03/21 01:17:42;;;;;;;70.15;49.95;;;5.00;99.90;;;;;;5056439;28;20044;-71
2022/03/21 01:20:09;;;;;;;70.50;51.13;;;4.90;99.90;;;;;;5051471;28;20036;-73
2022/03/21 01:22:35;;;;;;;69.35;51.80;;;4.90;99.90;;;;;;5060002;28;20051;-72
2022/03/21 01:25:01;;;;;;;66.03;50.58;;;5.00;99.90;;;;;;5056696;28;20041;-70
2022/03/21 01:27:26;;;;;;;67.72;50.72;;;4.90;99.90;;;;;;5054048;28;20385;-73
2022/03/21 01:29:52;;;;;;;69.20;51.60;;;4.90;99.90;;;;;;5048512;28;20077;-72
2022/03/21 01:32:18;;;;;;;64.30;49.17;;;4.90;99.90;;;;;;5057624;28;20055;-73
2022/03/21 01:34:44;;;;;;;67.18;48.83;;;4.90;99.90;;;;;;5051114;28;20051;-72
2022/03/21 01:37:09;;;;;;;64.72;48.55;;;4.80;99.90;;;;;;5054750;28;20049;-73
2022/03/21 01:39:35;;;;;;;70.18;51.90;;;4.80;99.90;;;;;;5054291;28;20048;-73
2022/03/21 01:42:01;;;;;;;64.47;46.25;;;4.80;99.90;;;;;;5054741;28;20086;-72
2022/03/21 01:44:26;;;;;;;60.65;46.28;;;4.80;99.90;;;;;;5053222;28;20041;-72
2022/03/21 01:46:52;;;;;;;62.75;41.58;;;4.80;99.90;;;;;;5054183;28;20455;-71
2022/03/21 01:49:18;;;;;;;62.03;45.53;;;4.80;99.90;;;;;;5023415;28;20511;-72
2022/03/21 01:51:44;;;;;;;59.40;46.00;;;4.80;99.90;;;;;;5054407;28;20036;-72
2022/03/21 01:56:56;;;;;;;63.20;44.60;;;4.70;99.90;;;;;;5072110;28;20051;-72
2022/03/21 01:59:21;;;;;;;58.42;43.15;;;4.70;99.90;;;;;;5062248;28;20040;-72
2022/03/21 02:01:49;;;;;;;59.50;42.17;;;4.70;99.90;;;;;;5072298;28;20051;-72
2022/03/21 02:04:15;;;;;;;51.25;39.40;;;4.60;99.90;;;;;;5063547;28;20401;-71
2022/03/21 02:06:45;;;;;;;50.90;36.88;;;4.60;99.90;;;;;;5065006;28;20041;-71
2022/03/21 02:09:11;;;;;;;48.63;34.88;;;4.60;99.90;;;;;;5051317;28;20082;-71
2022/03/21 02:11:37;;;;;;;51.05;34.25;;;4.60;99.90;;;;;;5033577;28;20091;-71
2022/03/21 02:14:05;;;;;;;45.65;34.60;;;4.50;99.90;;;;;;5071497;28;20124;-72
2022/03/21 02:16:33;;;;;;;46.28;34.47;;;4.50;99.90;;;;;;5071251;28;20729;-71
2022/03/21 02:19:01;;;;;;;51.88;37.28;;;4.50;99.90;;;;;;5060753;28;20029;-71
2022/03/21 02:21:35;;;;;;;47.83;35.80;;;4.40;99.90;;;;;;5035143;28;20032;-72
2022/03/21 02:24:14;;;;;;;47.78;33.97;;;4.40;99.90;;;;;;5064090;28;20210;-74
2022/03/21 02:26:40;;;;;;;46.10;33.53;;;4.30;99.90;;;;;;5056077;28;20114;-73
2022/03/21 02:29:08;;;;;;;45.20;32.65;;;4.30;99.90;;;;;;5054367;28;20884;-71
2022/03/21 02:31:35;;;;;;;40.83;31.23;;;4.20;99.90;;;;;;5069862;28;20063;-73
2022/03/21 02:34:01;;;;;;;44.08;32.25;;;4.20;99.90;;;;;;5077722;28;20045;-72
2022/03/21 02:36:27;;;;;;;44.95;30.98;;;4.10;99.90;;;;;;5050487;28;20060;-72
2022/03/21 02:38:56;;;;;;;43.58;31.85;;;4.10;99.90;;;;;;5050518;28;20060;-72
2022/03/21 02:41:22;;;;;;;45.17;31.40;;;4.10;99.90;;;;;;5049432;28;20043;-72
2022/03/21 02:43:55;;;;;;;43.60;31.20;;;4.10;99.90;;;;;;5050694;28;20036;-72
2022/03/21 02:46:21;;;;;;;41.42;28.20;;;4.10;99.90;;;;;;5050757;28;20110;-72
2022/03/21 02:48:48;;;;;;;37.90;27.45;;;4.10;99.90;;;;;;5068701;28;20040;-72
2022/03/21 02:51:14;;;;;;;40.13;27.45;;;4.00;99.90;;;;;;5052086;28;20101;-72
2022/03/21 02:53:41;;;;;;;35.53;27.33;;;4.00;99.90;;;;;;5052621;28;20051;-72
2022/03/21 02:56:07;;;;;;;34.30;24.27;;;3.90;99.90;;;;;;5074408;28;20554;-72
2022/03/21 02:58:33;;;;;;;31.30;24.48;;;3.90;99.90;;;;;;5056050;28;20036;-72
2022/03/21 03:01:06;;;;;;;33.92;24.17;;;3.90;99.90;;;;;;5054810;28;20131;-72
2022/03/21 03:03:31;;;;;;;35.88;24.85;;;3.80;99.90;;;;;;5059105;28;20040;-72
2022/03/21 03:05:57;;;;;;;38.60;27.55;;;3.80;99.90;;;;;;5070496;28;20124;-72
2022/03/21 03:08:23;;;;;;;40.30;27.85;;;3.80;99.90;;;;;;5067225;28;20043;-72
2022/03/21 03:10:48;;;;;;;33.65;24.40;;;3.80;99.90;;;;;;5050230;28;20772;-72
2022/03/21 03:13:14;;;;;;;33.13;24.50;;;3.80;99.90;;;;;;5051339;28;20040;-72
2022/03/21 03:15:39;;;;;;;35.17;24.20;;;3.80;99.90;;;;;;5072276;28;20491;-72
2022/03/21 03:18:05;;;;;;;32.78;21.85;;;3.80;99.90;;;;;;5051555;28;20040;-72
2022/03/21 03:20:31;;;;;;;36.10;21.80;;;3.70;99.90;;;;;;5072069;28;20378;-72
2022/03/21 03:22:59;;;;;;;30.23;19.70;;;3.70;99.90;;;;;;5069403;28;20055;-72
2022/03/21 03:25:25;;;;;;;26.55;19.27;;;3.70;99.90;;;;;;5049342;28;20394;-72
2022/03/21 03:27:51;;;;;;;30.63;20.50;;;3.70;99.90;;;;;;5050219;28;20044;-72
2022/03/21 03:30:16;;;;;;;28.40;19.55;;;3.70;99.90;;;;;;5054964;28;20054;-72
2022/03/21 03:32:44;;;;;;;24.25;18.08;;;3.60;99.90;;;;;;5051688;28;20589;-72
2022/03/21 03:35:09;;;;;;;28.80;19.17;;;3.60;99.90;;;;;;5050544;28;20401;-72
2022/03/21 03:37:36;;;;;;;27.17;18.77;;;3.60;99.90;;;;;;5072510;28;20035;-72
2022/03/21 03:40:02;;;;;;;25.02;17.63;;;3.60;99.90;;;;;;5049328;28;20063;-72
2022/03/21 03:42:28;;;;;;;25.10;16.58;;;3.50;99.90;;;;;;5053119;28;20512;-72
2022/03/21 03:44:53;;;;;;;24.48;17.50;;;3.50;99.90;;;;;;5048495;28;20048;-72
2022/03/21 03:47:19;;;;;;;22.92;15.45;;;3.50;99.90;;;;;;5050943;28;20527;-72
2022/03/21 03:49:45;;;;;;;24.95;16.38;;;3.40;99.90;;;;;;5050115;28;20032;-72
2022/03/21 03:52:10;;;;;;;23.50;17.92;;;3.40;99.90;;;;;;5050973;28;20044;-72
2022/03/21 03:54:36;;;;;;;27.60;16.30;;;3.30;99.90;;;;;;5050738;28;20049;-72
2022/03/21 03:57:02;;;;;;;35.08;16.48;;;3.20;99.90;;;;;;5034138;28;20509;-72
2022/03/21 03:59:27;;;;;;;43.03;16.17;;;3.20;99.90;;;;;;5050057;28;20047;-72
2022/03/21 04:01:53;;;;;;;26.13;15.10;;;3.10;99.90;;;;;;5056329;28;20098;-72
2022/03/21 04:04:19;;;;;;;18.98;14.85;;;3.00;99.90;;;;;;5068419;28;20060;-72
2022/03/21 04:06:45;;;;;;;23.40;16.10;;;3.00;99.90;;;;;;5061992;28;20032;-72
2022/03/21 04:09:11;;;;;;;22.83;15.73;;;2.90;99.90;;;;;;5071561;28;20036;-72
2022/03/21 04:11:36;;;;;;;18.52;14.98;;;2.90;99.90;;;;;;5053052;28;20032;-72
2022/03/21 04:14:02;;;;;;;128.38;19.75;;;2.90;99.90;;;;;;5052485;28;20070;-72
2022/03/21 04:16:28;;;;;;;25.75;16.95;;;2.90;99.90;;;;;;5052906;28;20472;-72
2022/03/21 04:18:53;;;;;;;20.55;16.95;;;2.70;99.90;;;;;;5049676;28;20083;-72
2022/03/21 04:21:19;;;;;;;19.60;14.32;;;2.70;99.90;;;;;;5049056;28;20067;-72
2022/03/21 04:23:45;;;;;;;16.88;11.02;;;2.70;99.90;;;;;;5048418;28;20036;-72
2022/03/21 04:26:12;;;;;;;21.38;16.13;;;2.70;99.90;;;;;;5069130;28;20053;-72
2022/03/21 04:28:38;;;;;;;18.98;15.35;;;2.70;99.90;;;;;;5053091;28;20126;-72
2022/03/21 04:31:03;;;;;;;18.20;14.68;;;2.70;99.90;;;;;;5048906;28;20040;-72
2022/03/21 04:33:30;;;;;;;15.85;12.88;;;2.70;99.90;;;;;;5050601;28;20047;-72
2022/03/21 04:35:55;;;;;;;33.60;20.48;;;2.70;99.90;;;;;;5052727;28;20542;-72
2022/03/21 04:38:21;;;;;;;28.42;18.67;;;2.70;99.90;;;;;;5046917;28;20041;-71
2022/03/21 04:40:49;;;;;;;26.08;16.85;;;2.70;99.90;;;;;;5051348;28;20497;-73
2022/03/21 04:43:17;;;;;;;28.73;17.33;;;2.70;99.90;;;;;;5048118;28;20079;-72
2022/03/21 04:45:44;;;;;;;26.02;18.77;;;2.70;99.90;;;;;;5053797;28;20036;-73
2022/03/21 04:48:10;;;;;;;25.23;16.98;;;2.70;99.90;;;;;;5053055;28;20173;-72
2022/03/21 04:50:36;;;;;;;18.10;12.15;;;2.70;99.90;;;;;;5054846;28;20038;-72
2022/03/21 04:53:02;;;;;;;19.60;11.48;;;2.70;99.90;;;;;;5054575;28;20037;-71
2022/03/21 04:55:28;;;;;;;25.65;16.48;;;2.70;99.90;;;;;;5057287;28;20658;-73
2022/03/21 04:57:54;;;;;;;23.52;17.20;;;2.70;99.90;;;;;;5051760;28;20043;-72
2022/03/21 05:00:20;;;;;;;24.95;17.13;;;2.60;99.90;;;;;;5037386;28;20041;-72
2022/03/21 05:02:46;;;;;;;21.90;15.25;;;2.60;99.90;;;;;;5056397;28;20550;-72
2022/03/21 05:05:12;;;;;;;25.73;16.08;;;2.60;99.90;;;;;;5054647;28;20066;-73
2022/03/21 05:07:42;;;;;;;19.65;14.48;;;2.60;99.90;;;;;;5052902;28;20502;-71
2022/03/21 05:10:09;;;;;;;25.42;17.52;;;2.50;99.90;;;;;;5056291;28;20039;-73
2022/03/21 05:12:35;;;;;;;23.95;15.60;;;2.40;99.90;;;;;;5054886;28;20397;-73
2022/03/21 05:15:03;;;;;;;22.75;16.58;;;2.20;99.90;;;;;;5074414;28;20048;-71
2022/03/21 05:17:29;;;;;;;18.40;13.95;;;2.10;99.90;;;;;;5056039;28;20039;-72
2022/03/21 05:19:56;;;;;;;14.82;10.30;;;2.00;99.90;;;;;;5053647;28;20447;-73
2022/03/21 05:22:21;;;;;;;11.13;8.45;;;1.90;99.90;;;;;;5053391;28;20048;-72
2022/03/21 05:35:55;;;;;;;9.60;8.40;;;1.70;99.90;;;;;;5048637;28;20048;-72
2022/03/21 05:38:25;;;;;;;7.75;6.93;;;1.60;99.90;;;;;;5051869;28;20448;-71
2022/03/21 05:40:56;;;;;;;6.82;5.13;;;1.50;99.90;;;;;;5056242;28;20392;-72
2022/03/21 05:43:22;;;;;;;6.13;4.05;;;1.50;99.90;;;;;;5057786;28;20611;-72
2022/03/21 05:45:49;;;;;;;7.10;5.00;;;1.50;99.90;;;;;;5051014;28;20047;-72
2022/03/21 05:51:00;;;;;;;7.47;6.07;;;1.50;99.90;;;;;;5051232;28;20048;-72
2022/03/21 05:53:26;;;;;;;6.07;5.57;;;1.50;99.90;;;;;;5035002;28;20052;-72
2022/03/21 05:55:51;;;;;;;5.20;4.70;;;1.50;99.90;;;;;;5072337;28;20122;-72
2022/03/21 05:58:17;;;;;;;4.80;4.40;;;1.50;99.90;;;;;;5050725;28;20040;-73
2022/03/21 06:00:43;;;;;;;4.78;4.38;;;1.40;99.90;;;;;;5049579;28;20044;-73
2022/03/21 06:03:09;;;;;;;5.20;4.65;;;1.40;99.90;;;;;;5059484;28;20174;-73
2022/03/21 06:05:35;;;;;;;5.88;5.32;;;1.40;99.90;;;;;;5059107;28;20614;-72
2022/03/21 06:08:01;;;;;;;6.68;5.07;;;1.40;99.90;;;;;;5058869;28;20511;-72
2022/03/21 06:10:27;;;;;;;6.32;3.80;;;1.40;99.90;;;;;;5046253;28;20040;-72
2022/03/21 06:12:55;;;;;;;6.43;4.18;;;1.40;99.90;;;;;;5068835;28;20594;-72
2022/03/21 06:15:21;;;;;;;4.30;3.85;;;1.40;99.90;;;;;;5046206;28;20791;-72
2022/03/21 06:17:46;;;;;;;8.38;5.00;;;1.40;99.90;;;;;;5054582;28;20044;-72
2022/03/21 06:20:14;;;;;;;5.03;4.60;;;1.40;99.90;;;;;;5049311;28;20080;-73
2022/03/21 06:22:40;;;;;;;15.88;5.80;;;1.40;99.90;;;;;;5053306;28;20036;-73
2022/03/21 06:25:07;;;;;;;5.03;4.55;;;1.40;99.90;;;;;;5056912;28;20044;-72
2022/03/21 06:27:39;;;;;;;5.72;5.15;;;1.40;99.90;;;;;;5054941;28;20420;-71
2022/03/21 06:30:07;;;;;;;6.43;5.32;;;1.40;99.90;;;;;;5044107;28;20079;-72
2022/03/21 06:32:34;;;;;;;7.10;4.78;;;1.50;99.90;;;;;;5041496;28;20036;-72
2022/03/21 06:35:01;;;;;;;5.28;4.45;;;1.50;99.90;;;;;;5057746;28;20072;-72
2022/03/21 06:37:27;;;;;;;5.85;4.20;;;1.50;99.90;;;;;;5072576;28;20039;-74
2022/03/21 06:39:53;;;;;;;5.13;4.15;;;1.50;99.90;;;;;;5073717;28;20754;-76
2022/03/21 06:42:21;;;;;;;4.70;4.22;;;1.50;99.90;;;;;;5055308;28;20039;-73
2022/03/21 06:44:48;;;;;;;5.85;4.88;;;1.60;99.90;;;;;;5038575;28;20048;-73
2022/03/21 06:47:14;;;;;;;5.82;5.32;;;1.60;99.90;;;;;;5069986;28;20452;-71
2022/03/21 06:49:40;;;;;;;6.68;6.07;;;1.60;99.90;;;;;;5051139;28;20243;-73
2022/03/21 06:52:08;;;;;;;6.70;6.10;;;1.60;99.90;;;;;;5048115;28;20024;-71
2022/03/21 06:54:34;;;;;;;7.78;7.03;;;1.60;99.90;;;;;;5053584;28;20044;-72
2022/03/21 06:57:00;;;;;;;8.75;7.93;;;1.70;99.90;;;;;;5071358;28;20052;-72
2022/03/21 06:59:26;;;;;;;12.77;9.75;;;1.60;99.90;;;;;;5052001;28;20596;-73
2022/03/21 07:01:52;;;;;;;11.43;10.23;;;1.70;99.90;;;;;;5038146;28;20036;-72
2022/03/21 07:04:17;;;;;;;11.45;10.25;;;1.70;99.90;;;;;;5054266;28;20036;-72
2022/03/21 07:06:43;;;;;;;11.75;10.55;;;1.80;99.90;;;;;;5058679;28;20036;-72
2022/03/21 07:09:09;;;;;;;12.38;10.25;;;1.80;99.90;;;;;;5048122;28;20040;-71
2022/03/21 07:11:37;;;;;;;13.43;11.95;;;1.80;99.90;;;;;;5039211;28;20107;-71
2022/03/21 07:14:03;;;;;;;15.00;11.95;;;1.90;99.90;;;;;;5024422;28;20155;-72
2022/03/21 07:16:29;;;;;;;16.42;12.75;;;2.00;99.90;;;;;;5058877;28;20118;-72
2022/03/21 07:18:54;;;;;;;16.90;12.60;;;2.00;99.90;;;;;;5060865;28;20089;-72
2022/03/21 07:21:20;;;;;;;16.02;12.88;;;2.10;99.90;;;;;;5072489;28;20044;-71
2022/03/21 07:23:46;;;;;;;17.08;13.43;;;2.20;99.90;;;;;;5066206;28;20032;-71
2022/03/21 07:26:12;;;;;;;16.40;13.02;;;2.30;99.90;;;;;;5053600;28;20076;-72
2022/03/21 07:28:38;;;;;;;18.00;14.05;;;2.40;99.90;;;;;;5058053;28;20036;-72
2022/03/21 07:31:05;;;;;;;20.75;14.00;;;2.60;99.90;;;;;;5073631;28;20040;-71
2022/03/21 07:33:31;;;;;;;19.50;15.15;;;2.70;99.90;;;;;;5048038;28;20036;-75
2022/03/21 07:35:57;;;;;;;29.48;20.80;;;2.90;99.90;;;;;;5056621;28;20515;-76
2022/03/21 07:38:22;;;;;;;30.10;20.02;;;3.00;99.90;;;;;;5054731;28;20059;-76
2022/03/21 07:40:49;;;;;;;30.58;21.15;;;3.20;99.90;;;;;;5043702;28;20041;-76
2022/03/21 07:43:15;;;;;;;36.00;21.77;;;3.30;99.90;;;;;;5044656;28;20520;-76
2022/03/21 07:48:28;;;;;;;47.30;26.80;;;3.60;99.90;;;;;;5047258;28;20558;-76
2022/03/21 07:50:54;;;;;;;37.58;25.92;;;3.80;99.90;;;;;;5044207;28;20045;-71
2022/03/21 07:53:20;;;;;;;49.92;29.40;;;3.90;99.90;;;;;;5033091;28;20067;-73
2022/03/21 07:55:46;;;;;;;56.53;32.47;;;4.20;99.90;;;;;;5051429;28;20067;-72
2022/03/21 07:58:12;;;;;;;53.75;31.75;;;4.50;99.90;;;;;;5054837;28;20131;-72
2022/03/21 08:00:41;;;;;;;54.47;33.08;;;4.80;99.90;;;;;;5060216;28;20143;-72
2022/03/21 08:03:09;;;;;;;50.78;31.35;;;5.00;99.90;;;;;;5061771;28;20557;-72
2022/03/21 08:05:35;;;;;;;56.40;33.65;;;5.20;99.90;;;;;;5056499;28;20050;-74
2022/03/21 08:08:01;;;;;;;54.95;32.45;;;5.30;99.90;;;;;;5050267;28;20122;-71
2022/03/21 08:10:29;;;;;;;54.47;32.15;;;5.50;99.90;;;;;;5064181;28;20423;-72
2022/03/21 08:12:56;;;;;;;51.22;32.08;;;5.60;99.90;;;;;;5060446;28;20040;-72
2022/03/21 08:15:22;;;;;;;48.05;29.30;;;5.80;99.90;;;;;;5057663;28;20629;-72
2022/03/21 08:17:49;;;;;;;40.58;26.90;;;6.00;99.90;;;;;;5061309;28;20080;-72
2022/03/21 08:20:17;;;;;;;41.45;24.38;;;6.20;99.90;;;;;;5083307;28;20044;-72
2022/03/21 08:22:43;;;;;;;35.67;22.77;;;6.50;99.90;;;;;;5056825;28;20044;-79
2022/03/21 08:25:10;;;;;;;32.08;22.52;;;6.70;99.90;;;;;;5059932;28;20610;-80
2022/03/21 08:27:36;;;;;;;33.72;22.00;;;6.80;99.90;;;;;;5048855;28;20041;-78
2022/03/21 08:30:02;;;;;;;31.85;20.08;;;6.90;99.90;;;;;;5047158;28;20032;-77
2022/03/21 08:32:28;;;;;;;42.78;24.13;;;7.00;99.90;;;;;;5051734;28;20041;-72
2022/03/21 08:34:53;;;;;;;34.45;21.17;;;7.10;99.90;;;;;;5053402;28;20042;-79
2022/03/21 08:37:21;;;;;;;28.27;18.50;;;7.30;99.90;;;;;;5056111;28;20053;-72
2022/03/21 08:39:47;;;;;;;25.30;18.92;;;7.50;99.90;;;;;;5040815;28;20035;-73
2022/03/21 08:42:12;;;;;;;28.70;18.25;;;7.60;99.90;;;;;;5054388;28;20408;-72
2022/03/21 08:44:39;;;;;;;25.50;17.85;;;7.80;99.90;;;;;;5051964;28;20144;-73
2022/03/21 08:47:05;;;;;;;25.90;17.63;;;8.10;99.90;;;;;;5057879;28;20944;-72
2022/03/21 08:49:36;;;;;;;24.63;17.95;;;8.30;99.90;;;;;;5043196;28;20124;-71
2022/03/21 08:52:03;;;;;;;24.35;17.13;;;8.50;99.90;;;;;;5037698;28;20043;-72
2022/03/21 08:54:29;;;;;;;27.67;17.45;;;8.60;99.90;;;;;;5042032;28;20049;-73
2022/03/21 08:56:55;;;;;;;26.83;17.05;;;8.80;99.90;;;;;;5074245;28;20036;-72
2022/03/21 08:59:21;;;;;;;23.98;17.08;;;8.90;99.90;;;;;;5057113;28;20055;-71
2022/03/21 09:01:48;;;;;;;26.55;17.63;;;9.10;99.90;;;;;;5037369;28;20036;-76
2022/03/21 09:04:13;;;;;;;21.83;16.23;;;9.30;99.90;;;;;;5056263;28;20535;-72
2022/03/21 09:06:40;;;;;;;21.45;15.77;;;9.40;99.90;;;;;;5054288;28;20037;-71
2022/03/21 09:09:06;;;;;;;23.70;16.48;;;9.60;99.90;;;;;;5036992;28;20074;-71
2022/03/21 09:11:31;;;;;;;23.25;16.48;;;9.70;99.90;;;;;;5071216;28;20040;-73
2022/03/21 09:13:57;;;;;;;23.80;17.48;;;9.80;99.90;;;;;;5060789;28;20500;-72
2022/03/21 09:16:23;;;;;;;26.27;17.42;;;10.00;99.90;;;;;;5064508;28;20032;-73
2022/03/21 09:18:48;;;;;;;25.98;17.92;;;10.10;99.90;;;;;;5059192;28;20032;-72
2022/03/21 09:21:14;;;;;;;24.10;17.48;;;10.20;99.90;;;;;;5068660;28;20615;-72
2022/03/21 09:23:40;;;;;;;22.40;17.08;;;10.40;99.90;;;;;;5062020;28;20036;-73
2022/03/21 09:26:10;;;;;;;25.33;16.60;;;10.50;99.90;;;;;;5057850;28;20501;-73
2022/03/21 09:28:38;;;;;;;23.85;17.05;;;10.60;99.90;;;;;;5059510;28;20105;-71
2022/03/21 09:31:06;;;;;;;27.13;18.02;;;10.80;99.90;;;;;;5022512;28;20113;-73
2022/03/21 09:33:33;;;;;;;27.27;17.23;;;10.90;99.90;;;;;;5081311;28;20424;-72
2022/03/21 09:35:58;;;;;;;26.02;17.13;;;11.10;99.90;;;;;;5028470;28;20119;-73
2022/03/21 09:38:24;;;;;;;27.23;18.05;;;11.20;99.90;;;;;;5063402;28;20457;-73
2022/03/21 09:40:49;;;;;;;28.58;18.33;;;11.30;99.90;;;;;;5065156;28;20055;-73
2022/03/21 09:43:15;;;;;;;27.35;18.58;;;11.50;99.90;;;;;;5060932;28;20509;-73
2022/03/21 09:45:42;;;;;;;26.05;18.15;;;11.60;99.90;;;;;;5058222;28;20036;-73
2022/03/21 09:48:12;;;;;;;25.83;19.10;;;11.70;99.90;;;;;;5061711;28;20040;-73
2022/03/21 09:50:44;;;;;;;27.33;19.58;;;11.80;99.90;;;;;;5063016;28;20125;-76
2022/03/21 09:53:15;;;;;;;25.65;19.42;;;11.90;99.90;;;;;;5044292;28;20036;-79
2022/03/21 09:55:44;;;;;;;28.02;20.80;;;11.90;99.90;;;;;;5050755;28;20076;-81
2022/03/21 09:58:11;;;;;;;29.67;19.98;;;11.90;99.90;;;;;;5052792;28;20040;-79
2022/03/21 10:00:41;;;;;;;32.03;20.15;;;11.90;99.90;;;;;;5056722;28;20040;-81
2022/03/21 10:03:07;;;;;;;29.98;21.85;;;11.90;99.90;;;;;;5052006;28;20056;-79
2022/03/21 10:05:41;;;;;;;29.60;21.00;;;11.90;99.90;;;;;;5064260;28;20119;-79
2022/03/21 10:08:11;;;;;;;32.50;21.63;;;12.00;99.90;;;;;;5058358;28;20032;-81
2022/03/21 10:10:36;;;;;;;29.27;20.63;;;12.00;99.90;;;;;;5058188;28;20029;-80
2022/03/21 10:13:03;;;;;;;29.33;20.73;;;12.10;99.90;;;;;;5044467;28;20086;-80
2022/03/21 10:15:29;;;;;;;33.90;21.60;;;12.20;99.90;;;;;;5058530;28;20033;-80
2022/03/21 10:18:09;;;;;;;30.25;21.33;;;12.40;99.90;;;;;;5042456;28;20047;-80
2022/03/21 10:20:36;;;;;;;26.50;20.15;;;12.40;99.90;;;;;;5058303;28;20400;-80
2022/03/21 10:23:22;;;;;;;25.27;20.38;;;12.40;99.90;;;;;;5050477;28;20036;-79
2022/03/21 10:25:51;;;;;;;27.55;21.38;;;12.60;99.90;;;;;;5033097;28;20029;-81
2022/03/21 10:28:34;;;;;;;29.33;20.45;;;12.70;99.90;;;;;;5058116;28;20079;-81
2022/03/21 10:31:01;;;;;;;28.55;20.40;;;12.90;99.90;;;;;;5066555;28;20044;-79
2022/03/21 10:33:28;;;;;;;26.08;20.13;;;12.90;99.90;;;;;;5033753;28;20055;-81
2022/03/21 10:35:54;;;;;;;32.00;19.95;;;13.00;99.20;;;;;;5050835;28;20063;-81
2022/03/21 10:38:35;;;;;;;25.77;19.48;;;13.10;94.50;;;;;;5039883;28;20082;-79
2022/03/21 10:41:09;;;;;;;26.02;19.98;;;13.20;94.60;;;;;;5051975;28;20086;-80
2022/03/21 10:43:35;;;;;;;27.88;19.90;;;13.20;93.50;;;;;;5049438;28;20097;-79
2022/03/21 10:46:02;;;;;;;28.73;19.42;;;13.40;97.30;;;;;;5053562;28;20047;-81
2022/03/21 10:48:32;;;;;;;29.52;19.70;;;13.50;95.90;;;;;;5048142;28;20032;-79
2022/03/21 10:51:01;;;;;;;27.02;19.65;;;13.70;94.50;;;;;;5032053;28;20462;-81
2022/03/21 10:53:40;;;;;;;27.92;19.20;;;13.80;92.30;;;;;;5038390;28;20044;-82
2022/03/21 10:56:09;;;;;;;32.72;19.95;;;14.00;84.70;;;;;;5053069;28;20044;-81
2022/03/21 10:58:43;;;;;;;26.63;18.52;;;14.10;89.00;;;;;;5036923;28;20032;-82
2022/03/21 11:01:19;;;;;;;29.05;19.92;;;14.20;83.30;;;;;;5046935;28;20045;-79
2022/03/21 11:03:50;;;;;;;24.83;19.25;;;14.40;81.70;;;;;;5046180;28;20043;-79
2022/03/21 11:06:16;;;;;;;27.30;20.10;;;14.50;79.20;;;;;;5051098;28;20123;-81
2022/03/21 11:08:43;;;;;;;27.70;19.67;;;14.60;81.40;;;;;;5051506;28;20120;-82
2022/03/21 11:11:10;;;;;;;24.42;19.10;;;14.70;80.20;;;;;;5029197;28;20033;-82
2022/03/21 11:13:39;;;;;;;24.67;18.17;;;15.00;81.80;;;;;;5053037;28;20034;-82
2022/03/21 11:16:06;;;;;;;27.50;19.45;;;15.20;79.00;;;;;;5044383;28;20048;-79
2022/03/21 11:18:31;;;;;;;24.85;18.67;;;15.40;78.00;;;;;;5052975;28;20037;-81
2022/03/21 11:20:58;;;;;;;25.45;19.27;;;15.70;75.90;;;;;;5057421;28;20089;-79
2022/03/21 11:23:27;;;;;;;31.52;20.33;;;15.90;73.20;;;;;;5038648;28;20468;-81
2022/03/21 11:25:56;;;;;;;29.10;19.63;;;16.10;72.80;;;;;;5049122;28;20032;-81
2022/03/21 11:29:00;;;;;;;26.73;19.48;;;16.30;70.90;;;;;;5053488;28;20037;-79
2022/03/21 11:31:57;;;;;;;33.25;19.33;;;16.50;66.40;;;;;;5056068;28;20028;-82
2022/03/21 11:34:54;;;;;;;23.80;18.05;;;16.60;62.80;;;;;;5030276;28;20029;-81
2022/03/21 11:37:29;;;;;;;23.33;17.17;;;16.30;61.50;;;;;;5047229;28;20028;-81
2022/03/21 11:40:27;;;;;;;27.17;18.17;;;16.50;61.70;;;;;;5051343;28;20029;-79
2022/03/21 11:42:56;;;;;;;23.75;18.13;;;16.50;59.20;;;;;;5047267;28;20028;-82
2022/03/21 11:45:25;;;;;;;27.63;18.67;;;16.70;63.00;;;;;;5034164;28;20044;-79
2022/03/21 11:48:31;;;;;;;24.73;17.95;;;16.70;60.90;;;;;;5055065;28;20514;-81
2022/03/21 11:50:56;;;;;;;23.23;18.67;;;16.60;60.90;;;;;;5054759;28;20119;-80
2022/03/21 11:53:31;;;;;;;26.48;19.45;;;16.60;61.20;;;;;;5035570;28;20433;-80
2022/03/21 11:55:57;;;;;;;25.65;19.52;;;16.50;58.40;;;;;;5046938;28;20056;-80
2022/03/21 11:58:23;;;;;;;24.65;18.75;;;16.60;62.20;;;;;;5039343;28;20036;-81
2022/03/21 12:01:28;;;;;;;26.75;18.88;;;16.50;59.10;;;;;;5052983;28;20044;-81
2022/03/21 12:03:53;;;;;;;27.80;19.48;;;16.60;58.50;;;;;;5023444;28;20134;-81
2022/03/21 12:06:23;;;;;;;32.47;20.05;;;16.70;59.20;;;;;;5045102;28;20617;-82
2022/03/21 12:08:58;;;;;;;26.10;19.25;;;16.90;59.80;;;;;;5022236;28;20395;-82
2022/03/21 12:11:56;;;;;;;28.98;18.67;;;17.10;59.10;;;;;;5057714;28;20032;-81
2022/03/21 12:14:31;;;;;;;26.08;19.88;;;17.40;60.80;;;;;;5036311;28;20044;-80
2022/03/21 12:17:00;;;;;;;26.13;18.90;;;17.70;60.30;;;;;;5041823;28;20063;-80
2022/03/21 12:22:27;;;;;;;30.13;18.05;;;18.00;53.60;;;;;;5043833;28;20467;-81
2022/03/21 12:24:53;;;;;;;32.33;18.23;;;18.00;56.10;;;;;;5049800;28;20045;-82
2022/03/21 12:27:55;;;;;;;28.60;18.33;;;18.30;56.30;;;;;;5039664;28;20450;-82
2022/03/21 12:30:21;;;;;;;25.48;18.60;;;18.30;53.20;;;;;;5039690;28;20569;-82
2022/03/21 12:33:05;;;;;;;26.27;17.42;;;18.30;54.50;;;;;;5047896;28;20029;-82
2022/03/21 12:35:31;;;;;;;27.17;18.45;;;18.50;55.00;;;;;;5028105;28;20415;-81
2022/03/21 12:38:22;;;;;;;25.60;18.50;;;18.60;54.10;;;;;;5030649;28;20123;-82
2022/03/21 12:40:51;;;;;;;24.40;19.02;;;18.70;54.90;;;;;;5043777;28;20573;-82
2022/03/21 12:43:27;;;;;;;33.22;21.20;;;18.70;55.20;;;;;;5051933;28;20041;-82
2022/03/21 12:46:12;;;;;;;30.52;18.20;;;18.90;54.80;;;;;;5031319;28;20521;-79
2022/03/21 12:48:57;;;;;;;28.17;18.00;;;19.00;51.80;;;;;;5051495;28;20513;-79
2022/03/21 12:51:35;;;;;;;27.98;18.08;;;19.30;53.70;;;;;;5042362;28;20632;-82
2022/03/21 12:54:05;;;;;;;28.27;17.55;;;19.50;51.10;;;;;;5047280;28;20480;-82
2022/03/21 12:56:32;;;;;;;24.50;18.15;;;19.20;50.30;;;;;;5043904;28;20619;-79
2022/03/21 12:59:04;;;;;;;22.95;18.33;;;19.10;52.30;;;;;;5031302;28;20047;-79
2022/03/21 13:01:30;;;;;;;;;;;19.00;50.30;;;;;;5056182;28;20775;-79
2022/03/21 13:12:34;;;;;;;25.65;17.52;;;19.90;51.80;;;;;;5061071;28;20078;-81